createdAt,value
2023-05-08T00:00:38.949Z,52179.84
2023-05-08T00:03:10.654Z,52173.82
2023-05-08T00:05:40.450Z,52161.36
2023-05-08T00:08:11.945Z,52164.17
2023-05-08T00:10:43.659Z,52152.12
2023-05-08T00:13:13.430Z,52154.93
2023-05-08T00:15:45.223Z,52163.37
2023-05-08T00:18:14.959Z,52159.75
2023-05-08T00:20:46.610Z,52156.54
2023-05-08T00:23:18.154Z,52173.01
2023-05-08T00:25:49.969Z,52165.78
2023-05-08T00:28:19.671Z,52162.97
2023-05-08T00:30:51.030Z,52150.11
2023-05-08T00:33:22.524Z,52175.02
2023-05-08T00:35:54.281Z,52161.76
2023-05-08T00:38:24.085Z,52165.78
2023-05-08T00:40:55.490Z,52171.00
2023-05-08T00:43:28.586Z,52162.96
2023-05-08T00:46:01.396Z,52162.57
2023-05-08T00:48:34.203Z,52158.54
2023-05-08T00:51:06.237Z,52173.01
2023-05-08T00:53:40.646Z,52164.57
2023-05-08T00:56:12.857Z,52145.29
2023-05-08T00:58:44.305Z,52176.23
2023-05-08T01:01:16.163Z,52180.24
2023-05-08T01:03:48.106Z,52155.33
2023-05-08T01:06:19.927Z,52161.36
2023-05-08T01:08:51.459Z,52164.57
2023-05-08T01:11:26.487Z,52170.20
2023-05-08T01:14:04.631Z,52166.59
2023-05-08T01:16:40.405Z,52178.23
2023-05-08T01:19:40.528Z,52169.80
2023-05-08T01:22:26.478Z,52161.76
2023-05-08T01:25:12.976Z,52139.26
2023-05-08T01:28:02.316Z,52149.71
2023-05-08T01:30:55.705Z,52171.80
2023-05-08T01:33:31.169Z,52158.55
2023-05-08T01:36:05.735Z,52159.75
2023-05-08T01:38:40.464Z,52168.19
2023-05-08T01:41:12.381Z,52173.82
2023-05-08T01:43:53.907Z,52173.82
2023-05-08T01:46:27.202Z,52178.24
2023-05-08T01:49:00.897Z,52173.41
2023-05-08T01:51:34.387Z,52166.98
2023-05-08T01:54:10.108Z,52167.38
2023-05-08T01:56:42.176Z,52158.14
2023-05-08T01:59:11.955Z,52164.57
2023-05-08T02:01:43.777Z,52173.41
2023-05-08T02:04:15.393Z,52176.23
2023-05-08T02:06:46.816Z,52159.75
2023-05-08T02:09:18.388Z,52179.04
2023-05-08T02:11:49.913Z,52161.76
2023-05-08T02:14:23.412Z,52177.43
2023-05-08T02:16:53.623Z,52164.57
2023-05-08T02:19:25.115Z,52159.75
2023-05-08T02:21:56.749Z,52177.03
2023-05-08T02:24:28.467Z,52173.81
2023-05-08T02:27:00.106Z,52176.63
2023-05-08T02:29:31.633Z,52175.02
2023-05-08T02:32:03.408Z,52174.22
2023-05-08T02:34:33.173Z,52164.57
2023-05-08T02:37:04.767Z,52173.82
2023-05-08T02:39:36.308Z,52183.46
2023-05-08T02:42:06.326Z,52170.20
2023-05-08T02:44:37.933Z,52171.81
2023-05-08T02:47:16.125Z,52179.44
2023-05-08T02:49:52.188Z,52185.07
2023-05-08T02:52:26.805Z,52179.45
2023-05-08T02:54:59.939Z,52156.94
2023-05-08T02:57:37.810Z,52163.77
2023-05-08T03:00:14.006Z,52162.97
2023-05-08T03:02:49.360Z,52163.77
2023-05-08T03:05:22.081Z,52166.98
2023-05-08T03:07:54.569Z,52147.29
2023-05-08T03:10:29.815Z,52171.00
2023-05-08T03:13:01.617Z,52166.98
2023-05-08T03:15:36.523Z,52171.80
2023-05-08T03:18:11.882Z,52167.39
2023-05-08T03:20:45.034Z,52174.62
2023-05-08T03:23:17.033Z,52162.97
2023-05-08T03:25:48.461Z,52162.96
2023-05-08T03:28:21.751Z,52167.38
2023-05-08T03:30:53.413Z,52157.34
2023-05-08T03:33:23.237Z,52162.16
2023-05-08T03:35:55.054Z,52156.54
2023-05-08T03:38:26.635Z,52150.51
2023-05-08T03:40:58.140Z,52172.61
2023-05-08T03:43:29.828Z,52160.15
2023-05-08T03:45:59.637Z,52164.97
2023-05-08T03:48:31.354Z,52160.55
2023-05-08T03:51:04.548Z,52153.32
2023-05-08T03:53:37.485Z,52166.98
2023-05-08T03:56:09.718Z,52173.82
2023-05-08T03:58:42.234Z,52162.56
2023-05-08T04:01:15.573Z,52185.88
2023-05-08T04:03:56.661Z,52164.57
2023-05-08T04:06:45.905Z,52170.60
2023-05-08T04:09:35.401Z,52169.39
2023-05-08T04:12:14.398Z,52168.59
2023-05-08T04:14:48.447Z,52160.96
2023-05-08T04:17:24.049Z,52166.58
2023-05-08T04:20:00.433Z,52182.66
2023-05-08T04:22:31.942Z,52170.60
2023-05-08T04:25:05.466Z,52162.16
2023-05-08T04:27:37.318Z,52168.59
2023-05-08T04:30:08.292Z,52161.36
2023-05-08T04:32:42.248Z,52157.74
2023-05-08T04:35:15.498Z,52160.96
2023-05-08T04:37:47.468Z,52160.55
2023-05-08T04:40:19.525Z,52167.79
2023-05-08T04:42:51.156Z,52165.78
2023-05-08T04:45:23.548Z,52165.38
2023-05-08T04:47:55.882Z,52176.63
2023-05-08T04:50:28.101Z,52173.01
2023-05-08T04:52:58.619Z,52161.76
2023-05-08T04:55:30.384Z,52168.19
2023-05-08T04:58:02.243Z,52164.57
2023-05-08T05:00:32.218Z,52160.55
2023-05-08T05:03:04.013Z,52171.00
2023-05-08T05:05:38.684Z,52151.71
2023-05-08T05:08:10.562Z,52155.73
2023-05-08T05:10:42.954Z,52156.54
2023-05-08T05:13:14.765Z,52152.52
2023-05-08T05:15:47.267Z,52162.16
2023-05-08T05:18:19.734Z,52164.17
2023-05-08T05:20:51.182Z,52156.13
2023-05-08T05:23:21.188Z,52137.65
2023-05-08T05:25:52.701Z,52148.10
2023-05-08T05:28:24.330Z,52140.86
2023-05-08T05:30:54.229Z,52153.32
2023-05-08T05:33:26.255Z,52150.11
2023-05-08T05:35:57.736Z,52150.51
2023-05-08T05:38:29.163Z,52146.09
2023-05-08T05:41:01.113Z,52145.28
2023-05-08T05:43:32.625Z,52153.32
2023-05-08T05:46:08.295Z,52141.27
2023-05-08T05:48:40.004Z,52133.23
2023-05-08T05:51:13.068Z,52136.45
2023-05-08T05:53:44.919Z,52136.85
2023-05-08T05:56:16.570Z,52128.00
2023-05-08T05:58:47.969Z,52134.03
2023-05-08T06:01:19.503Z,52148.90
2023-05-08T06:03:51.140Z,52123.18
2023-05-08T06:06:21.287Z,52133.63
2023-05-08T06:08:52.664Z,52136.84
2023-05-08T06:11:24.152Z,52134.84
2023-05-08T06:13:55.899Z,52109.12
2023-05-08T06:16:27.549Z,52132.82
2023-05-08T06:18:59.055Z,52123.99
2023-05-08T06:21:31.049Z,52101.88
2023-05-08T06:24:02.470Z,52101.48
2023-05-08T06:26:33.984Z,52102.69
2023-05-08T06:29:05.537Z,52096.66
2023-05-08T06:31:35.650Z,52106.30
2023-05-08T06:34:07.167Z,52089.83
2023-05-08T06:36:38.781Z,52079.38
2023-05-08T06:39:10.381Z,52097.87
2023-05-08T06:41:41.937Z,52093.84
2023-05-08T06:44:14.003Z,52092.64
2023-05-08T06:46:45.655Z,52105.50
2023-05-08T06:49:17.465Z,52098.67
2023-05-08T06:51:47.203Z,52103.09
2023-05-08T06:54:19.106Z,52098.67
2023-05-08T06:56:50.734Z,52095.86
2023-05-08T06:59:23.509Z,52097.46
2023-05-08T07:01:55.390Z,52110.73
2023-05-08T07:04:27.032Z,52101.08
2023-05-08T07:06:58.661Z,52099.47
2023-05-08T07:09:30.518Z,52097.46
2023-05-08T07:12:02.516Z,52107.51
2023-05-08T07:14:32.507Z,52114.34
2023-05-08T07:17:07.818Z,52114.34
2023-05-08T07:19:40.092Z,52105.90
2023-05-08T07:22:11.700Z,52108.32
2023-05-08T07:24:43.247Z,52105.50
2023-05-08T07:27:18.528Z,52100.27
2023-05-08T07:29:50.098Z,52086.61
2023-05-08T07:32:21.579Z,52095.46
2023-05-08T07:34:53.088Z,52088.63
2023-05-08T07:37:25.409Z,52085.80
2023-05-08T07:39:57.341Z,52085.81
2023-05-08T07:42:28.759Z,52064.11
2023-05-08T07:45:00.459Z,52078.18
2023-05-08T07:47:32.712Z,52081.79
2023-05-08T07:50:04.753Z,52086.21
2023-05-08T07:52:36.621Z,52068.53
2023-05-08T07:55:17.645Z,52054.06
2023-05-08T07:57:50.004Z,52073.76
2023-05-08T08:00:23.306Z,52072.95
2023-05-08T08:02:55.373Z,52066.92
2023-05-08T08:05:27.737Z,52073.35
2023-05-08T08:08:00.351Z,52052.05
2023-05-08T08:10:36.781Z,52064.91
2023-05-08T08:13:10.048Z,52060.49
2023-05-08T08:15:43.916Z,52060.89
2023-05-08T08:18:16.302Z,52037.59
2023-05-08T08:20:48.886Z,52036.79
2023-05-08T08:23:21.236Z,52053.66
2023-05-08T08:25:53.891Z,52049.64
2023-05-08T08:28:25.687Z,52027.54
2023-05-08T08:30:59.331Z,52035.18
2023-05-08T08:33:32.757Z,52029.55
2023-05-08T08:36:04.350Z,52042.81
2023-05-08T08:38:34.513Z,52021.52
2023-05-08T08:41:06.442Z,52030.35
2023-05-08T08:43:44.243Z,52031.16
2023-05-08T08:46:20.632Z,52015.89
2023-05-08T08:48:52.983Z,52027.14
2023-05-08T08:51:30.971Z,52020.31
2023-05-08T08:54:09.650Z,52008.65
2023-05-08T08:56:43.384Z,52011.87
2023-05-08T08:59:17.427Z,52021.52
2023-05-08T09:01:52.850Z,52006.65
2023-05-08T09:04:30.042Z,52005.45
2023-05-08T09:07:05.771Z,52011.07
2023-05-08T09:09:38.263Z,52009.86
2023-05-08T09:12:12.107Z,52007.86
2023-05-08T09:14:44.405Z,52004.23
2023-05-08T09:17:16.385Z,52002.23
2023-05-08T09:19:49.599Z,52002.63
2023-05-08T09:22:23.404Z,51984.55
2023-05-08T09:25:03.607Z,51984.55
2023-05-08T09:27:38.002Z,51997.80
2023-05-08T09:30:12.189Z,51982.54
2023-05-08T09:32:45.490Z,51999.01
2023-05-08T09:35:17.643Z,51994.19
2023-05-08T09:37:49.643Z,51978.52
2023-05-08T09:40:22.364Z,51996.20
2023-05-08T09:42:54.067Z,51970.48
2023-05-08T09:45:33.011Z,52001.02
2023-05-08T09:48:04.615Z,51982.54
2023-05-08T09:50:36.072Z,51976.51
2023-05-08T09:53:07.758Z,51981.33
2023-05-08T09:55:49.284Z,51975.30
2023-05-08T09:58:23.327Z,51974.50
2023-05-08T10:00:54.989Z,51994.59
2023-05-08T10:03:25.091Z,51983.34
2023-05-08T10:05:56.907Z,51984.95
2023-05-08T10:08:30.175Z,51976.51
2023-05-08T10:11:16.625Z,51967.27
2023-05-08T10:13:48.607Z,51948.38
2023-05-08T10:16:20.509Z,51968.07
2023-05-08T10:18:52.429Z,51957.22
2023-05-08T10:21:24.314Z,51970.48
2023-05-08T10:23:55.958Z,51947.98
2023-05-08T10:26:29.154Z,51945.16
2023-05-08T10:29:01.316Z,51931.10
2023-05-08T10:31:33.168Z,51935.12
2023-05-08T10:34:05.488Z,51929.09
2023-05-08T10:36:37.204Z,51906.99
2023-05-08T10:39:08.893Z,51932.71
2023-05-08T10:41:40.698Z,51933.92
2023-05-08T10:44:12.393Z,51933.11
2023-05-08T10:46:43.957Z,51912.62
2023-05-08T10:49:20.312Z,51911.41
2023-05-08T10:51:58.040Z,51930.70
2023-05-08T10:54:35.542Z,51929.10
2023-05-08T10:57:13.986Z,51906.19
2023-05-08T10:59:48.110Z,51930.30
2023-05-08T11:02:19.582Z,51927.48
2023-05-08T11:04:51.044Z,51903.38
2023-05-08T11:07:22.509Z,51925.07
2023-05-08T11:09:54.527Z,51931.51
2023-05-08T11:12:27.381Z,51896.95
2023-05-08T11:15:01.998Z,51921.05
2023-05-08T11:17:33.537Z,51917.04
2023-05-08T11:20:03.800Z,51916.24
2023-05-08T11:22:35.295Z,51925.48
2023-05-08T11:25:08.960Z,51944.76
2023-05-08T11:28:14.652Z,51941.55
2023-05-08T11:30:46.765Z,51933.11
2023-05-08T11:33:24.796Z,51924.27
2023-05-08T11:35:59.984Z,51929.90
2023-05-08T11:38:36.264Z,51923.07
2023-05-08T11:41:09.298Z,51928.69
2023-05-08T11:44:04.799Z,51929.49
2023-05-08T11:46:41.695Z,51935.12
2023-05-08T11:49:20.222Z,51960.44
2023-05-08T11:51:55.639Z,51958.02
2023-05-08T11:54:27.074Z,51953.60
2023-05-08T11:56:57.702Z,51946.37
2023-05-08T11:59:29.147Z,51929.89
2023-05-08T12:02:08.373Z,51935.93
2023-05-08T12:04:48.162Z,51917.04
2023-05-08T12:07:20.842Z,51939.54
2023-05-08T12:09:52.497Z,51928.29
2023-05-08T12:12:22.377Z,51932.71
2023-05-08T12:14:54.142Z,51959.23
2023-05-08T12:17:25.830Z,51962.45
2023-05-08T12:20:04.324Z,51954.01
2023-05-08T12:22:36.242Z,51962.04
2023-05-08T12:25:06.725Z,51956.41
2023-05-08T12:27:38.900Z,51958.83
2023-05-08T12:30:12.280Z,51948.38
2023-05-08T12:32:44.763Z,51952.40
2023-05-08T12:35:16.562Z,51953.61
2023-05-08T12:37:48.346Z,51943.96
2023-05-08T12:40:28.145Z,51951.20
2023-05-08T12:43:01.721Z,51935.93
2023-05-08T12:45:34.735Z,51932.31
2023-05-08T12:48:07.083Z,51920.66
2023-05-08T12:50:39.427Z,51939.54
2023-05-08T12:53:12.077Z,51943.96
2023-05-08T12:55:52.050Z,51935.12
2023-05-08T12:58:25.771Z,51965.26
2023-05-08T13:01:05.370Z,51947.58
2023-05-08T13:03:37.350Z,51962.85
2023-05-08T13:06:09.206Z,51944.36
2023-05-08T13:08:42.115Z,51952.80
2023-05-08T13:11:13.684Z,51956.82
2023-05-08T13:13:45.237Z,51938.34
2023-05-08T13:16:15.669Z,51927.89
2023-05-08T13:18:47.410Z,51945.97
2023-05-08T13:21:17.056Z,51947.58
2023-05-08T13:23:48.674Z,51961.64
2023-05-08T13:26:20.101Z,51945.16
2023-05-08T13:28:54.005Z,51956.42
2023-05-08T13:31:27.226Z,51961.24
2023-05-08T13:33:58.922Z,51948.79
2023-05-08T13:36:30.437Z,51949.59
2023-05-08T13:39:00.166Z,51953.20
2023-05-08T13:41:31.851Z,51943.96
2023-05-08T13:44:03.263Z,51909.41
2023-05-08T13:46:34.844Z,51910.61
2023-05-08T13:49:06.894Z,51903.38
2023-05-08T13:51:38.434Z,51888.51
2023-05-08T13:54:08.574Z,51882.08
2023-05-08T13:56:39.914Z,51903.78
2023-05-08T13:59:12.635Z,51872.84
2023-05-08T14:01:44.318Z,51867.21
2023-05-08T14:04:16.049Z,51874.84
2023-05-08T14:06:47.623Z,51886.50
2023-05-08T14:09:17.413Z,51889.31
2023-05-08T14:11:48.909Z,51909.80
2023-05-08T14:14:20.254Z,51912.21
2023-05-08T14:16:52.328Z,51921.06
2023-05-08T14:19:23.686Z,51901.77
2023-05-08T14:21:55.260Z,51893.33
2023-05-08T14:24:26.686Z,51890.52
2023-05-08T14:26:59.685Z,51916.23
2023-05-08T14:29:31.200Z,51935.52
2023-05-08T14:32:02.684Z,51907.39
2023-05-08T14:34:32.596Z,51926.68
2023-05-08T14:37:04.239Z,51943.56
2023-05-08T14:39:33.987Z,51915.43
2023-05-08T14:42:22.153Z,51934.72
2023-05-08T14:44:56.061Z,51927.89
2023-05-08T14:47:27.626Z,51922.26
2023-05-08T14:49:59.117Z,51896.95
2023-05-08T14:52:30.955Z,51894.13
2023-05-08T14:55:03.581Z,51911.01
2023-05-08T14:57:35.772Z,51904.58
2023-05-08T15:00:09.475Z,51928.29
2023-05-08T15:02:41.211Z,51934.72
2023-05-08T15:08:05.781Z,51933.91
2023-05-08T15:10:37.209Z,51933.91
2023-05-08T15:13:08.764Z,51953.61
2023-05-08T15:15:40.462Z,51962.45
2023-05-08T15:18:10.342Z,51977.71
2023-05-08T15:20:41.759Z,51980.93
2023-05-08T15:23:13.357Z,51967.67
2023-05-08T15:25:43.226Z,51977.71
2023-05-08T15:28:14.963Z,51991.77
2023-05-08T15:30:44.725Z,51976.91
2023-05-08T15:33:16.122Z,51998.61
2023-05-08T15:35:48.073Z,52015.09
2023-05-08T15:38:19.454Z,52003.84
2023-05-08T15:40:51.045Z,52003.03
2023-05-08T15:43:22.766Z,52017.09
2023-05-08T15:45:54.800Z,52019.10
2023-05-08T15:48:26.690Z,52022.72
2023-05-08T15:50:58.731Z,52017.90
2023-05-08T15:53:30.792Z,52014.68
2023-05-08T15:56:00.829Z,51999.81
2023-05-08T15:58:32.425Z,52019.51
2023-05-08T16:01:02.474Z,51998.61
2023-05-08T16:03:34.893Z,51981.33
2023-05-08T16:06:06.999Z,51993.39
2023-05-08T16:08:38.648Z,51972.49
2023-05-08T16:11:11.428Z,52004.64
2023-05-08T16:13:42.838Z,51993.39
2023-05-08T16:16:14.571Z,51974.50
2023-05-08T16:18:46.033Z,51982.94
2023-05-08T16:21:17.557Z,51995.39
2023-05-08T16:23:48.985Z,51999.82
2023-05-08T16:26:20.694Z,52003.03
2023-05-08T16:28:51.106Z,52005.84
2023-05-08T16:31:22.457Z,51996.60
2023-05-08T16:33:54.071Z,52019.51
2023-05-08T16:36:26.958Z,52011.87
2023-05-08T16:38:58.408Z,52037.59
2023-05-08T16:41:30.299Z,52021.91
2023-05-08T16:44:02.107Z,52027.95
2023-05-08T16:46:33.637Z,52034.38
2023-05-08T16:49:06.163Z,52049.64
2023-05-08T16:51:37.625Z,52042.41
2023-05-08T16:54:09.200Z,52062.10
2023-05-08T16:56:39.117Z,52065.72
2023-05-08T16:59:10.738Z,52056.88
2023-05-08T17:01:42.271Z,52058.89
2023-05-08T17:04:12.184Z,52096.66
2023-05-08T17:06:43.694Z,52076.57
2023-05-08T17:09:16.764Z,52080.18
2023-05-08T17:11:48.553Z,52091.44
2023-05-08T17:14:18.750Z,52105.90
2023-05-08T17:16:50.707Z,52089.43
2023-05-08T17:19:22.135Z,52094.25
2023-05-08T17:21:53.508Z,52082.20
2023-05-08T17:24:24.864Z,52100.68
2023-05-08T17:26:56.917Z,52105.90
2023-05-08T17:29:28.574Z,52095.05
2023-05-08T17:32:00.102Z,52099.47
2023-05-08T17:34:30.117Z,52085.41
2023-05-08T17:37:01.672Z,52083.40
2023-05-08T17:39:33.567Z,52100.27
2023-05-08T17:42:05.995Z,52099.47
2023-05-08T17:44:37.528Z,52093.85
2023-05-08T17:47:09.451Z,52111.93
2023-05-08T17:49:41.157Z,52113.14
2023-05-08T17:52:10.815Z,52104.70
2023-05-08T17:54:42.380Z,52105.50
2023-05-08T17:57:14.016Z,52119.97
2023-05-08T17:59:45.599Z,52114.75
2023-05-08T18:02:17.013Z,52107.11
2023-05-08T18:04:47.411Z,52109.12
2023-05-08T18:07:18.878Z,52112.33
2023-05-08T18:09:51.081Z,52119.16
2023-05-08T18:12:22.684Z,52121.98
2023-05-08T18:14:52.688Z,52127.20
2023-05-08T18:17:24.380Z,52116.75
2023-05-08T18:19:54.163Z,52116.75
2023-05-08T18:22:26.664Z,52122.78
2023-05-08T18:24:58.410Z,52111.53
2023-05-08T18:27:32.113Z,52128.81
2023-05-08T18:30:03.963Z,52120.37
2023-05-08T18:32:35.620Z,52120.37
2023-05-08T18:35:05.798Z,52116.35
2023-05-08T18:37:37.124Z,52109.52
2023-05-08T18:40:10.433Z,52117.55
2023-05-08T18:42:41.922Z,52114.74
2023-05-08T18:45:14.816Z,52101.08
2023-05-08T18:47:46.398Z,52109.12
2023-05-08T18:50:18.124Z,52125.19
2023-05-08T18:52:49.723Z,52106.30
2023-05-08T18:55:21.410Z,52106.30
2023-05-08T18:57:51.142Z,52116.35
2023-05-08T19:00:23.437Z,52128.41
2023-05-08T19:02:55.095Z,52110.32
2023-05-08T19:05:27.056Z,52120.77
2023-05-08T19:07:58.670Z,52113.94
2023-05-08T19:10:28.700Z,52114.74
2023-05-08T19:13:02.836Z,52124.79
2023-05-08T19:15:34.266Z,52110.32
2023-05-08T19:18:06.023Z,52120.37
2023-05-08T19:20:37.643Z,52131.22
2023-05-08T19:23:09.128Z,52106.30
2023-05-08T19:25:40.873Z,52121.98
2023-05-08T19:28:12.222Z,52125.19
2023-05-08T19:30:43.662Z,52123.99
2023-05-08T19:33:15.783Z,52123.98
2023-05-08T19:35:48.320Z,52107.91
2023-05-08T19:38:19.632Z,52133.23
2023-05-08T19:40:57.132Z,52120.77
2023-05-08T19:43:29.495Z,52125.19
2023-05-08T19:46:01.628Z,52127.20
2023-05-08T19:48:33.281Z,52115.95
2023-05-08T19:51:09.917Z,52139.26
2023-05-08T19:53:41.443Z,52119.57
2023-05-08T19:56:12.847Z,52126.40
2023-05-08T19:58:44.235Z,52103.09
2023-05-08T20:01:15.748Z,52109.52
2023-05-08T20:03:47.303Z,52119.97
2023-05-08T20:06:18.867Z,52123.18
2023-05-08T20:08:51.193Z,52117.96
2023-05-08T20:11:23.437Z,52131.62
2023-05-08T20:13:55.225Z,52114.34
2023-05-08T20:16:27.091Z,52118.76
2023-05-08T20:18:57.117Z,52124.39
2023-05-08T20:21:32.558Z,52098.27
2023-05-08T20:24:03.908Z,52113.14
2023-05-08T20:26:35.553Z,52136.04
2023-05-08T20:29:06.877Z,52128.00
2023-05-08T20:31:38.559Z,52126.39
2023-05-08T20:34:10.315Z,52097.86
2023-05-08T20:36:41.948Z,52127.20
2023-05-08T20:39:13.286Z,52118.76
2023-05-08T20:41:44.730Z,52110.32
2023-05-08T20:44:19.344Z,52113.54
2023-05-08T20:46:51.536Z,52112.74
2023-05-08T20:49:22.999Z,52108.32
2023-05-08T20:51:54.513Z,52126.40
2023-05-08T20:54:25.909Z,52109.92
2023-05-08T20:56:57.473Z,52122.78
2023-05-08T20:59:28.854Z,52123.18
2023-05-08T21:02:00.176Z,52110.73
2023-05-08T21:04:31.538Z,52112.33
2023-05-08T21:07:02.952Z,52109.52
2023-05-08T21:09:34.528Z,52117.96
2023-05-08T21:12:04.462Z,52119.97
2023-05-08T21:14:35.832Z,52121.57
2023-05-08T21:17:07.407Z,52114.34
2023-05-08T21:19:38.960Z,52124.79
2023-05-08T21:22:10.419Z,52111.52
2023-05-08T21:24:45.221Z,52120.77
2023-05-08T21:27:16.665Z,52117.56
2023-05-08T21:29:48.001Z,52115.14
2023-05-08T21:32:19.502Z,52109.92
2023-05-08T21:34:51.032Z,52105.90
2023-05-08T21:37:22.431Z,52101.88
2023-05-08T21:39:57.436Z,52115.95
2023-05-08T21:42:28.892Z,52122.38
2023-05-08T21:45:00.404Z,52115.55
2023-05-08T21:47:31.860Z,52109.12
2023-05-08T21:50:03.407Z,52111.13
2023-05-08T21:52:34.762Z,52123.18
2023-05-08T21:55:08.931Z,52121.98
2023-05-08T21:57:40.498Z,52120.77
2023-05-08T22:00:13.922Z,52121.57
2023-05-08T22:02:50.937Z,52125.59
2023-05-08T22:05:24.390Z,52128.41
2023-05-08T22:07:56.052Z,52116.35
2023-05-08T22:10:27.312Z,52110.32
2023-05-08T22:12:58.834Z,52124.79
2023-05-08T22:15:31.092Z,52121.98
2023-05-08T22:18:03.145Z,52128.00
2023-05-08T22:20:34.810Z,52127.20
2023-05-08T22:23:06.602Z,52135.24
2023-05-08T22:25:36.509Z,52135.64
2023-05-08T22:28:07.996Z,52140.05
2023-05-08T22:30:39.436Z,52142.07
2023-05-08T22:33:10.836Z,52152.52
2023-05-08T22:35:42.277Z,52135.64
2023-05-08T22:38:13.773Z,52113.95
2023-05-08T22:40:47.936Z,52134.43
2023-05-08T22:43:19.466Z,52123.98
2023-05-08T22:45:50.850Z,52134.03
2023-05-08T22:48:22.149Z,52132.42
2023-05-08T22:50:53.519Z,52128.80
2023-05-08T22:53:24.939Z,52130.41
2023-05-08T22:55:56.294Z,52143.68
2023-05-08T22:58:29.400Z,52136.04
2023-05-08T23:01:00.839Z,52142.47
2023-05-08T23:03:32.284Z,52130.82
2023-05-08T23:06:03.581Z,52146.89
2023-05-08T23:08:34.953Z,52125.59
2023-05-08T23:11:06.517Z,52142.47
2023-05-08T23:13:37.896Z,52135.64
2023-05-08T23:16:09.675Z,52141.27
2023-05-08T23:18:41.521Z,52137.25
2023-05-08T23:21:12.977Z,52133.23
2023-05-08T23:23:44.273Z,52143.68
2023-05-08T23:26:16.152Z,52140.86
2023-05-08T23:28:47.462Z,52140.46
2023-05-08T23:31:19.817Z,52142.47
2023-05-08T23:33:51.442Z,52139.66
2023-05-08T23:36:22.787Z,52143.68
2023-05-08T23:38:54.571Z,52153.32
2023-05-08T23:41:24.385Z,52144.08
2023-05-08T23:43:56.384Z,52140.06
2023-05-08T23:46:27.792Z,52142.47
2023-05-08T23:48:59.108Z,52140.86
2023-05-08T23:51:30.510Z,52156.54
2023-05-08T23:54:01.992Z,52144.08
2023-05-08T23:56:34.026Z,52156.94
2023-05-08T23:59:05.582Z,52141.66
